Archival Weather

Ambodedjo

Ambodedjo, Mali (GAMB)

Report from: Wednesday, December 6, 2023 9:00 AM GMT
Current time: Friday, February 23, 2024 7:02 PM GMT

Current weather – Weather history – Daily summaries
Weather forecast

Temperature26.0°C (78.8°F)
Dew point7.0°C (44.6°F)
Winds 4 kts (2.1 m/s, 4.6 mph) Northeast (40°)
Visibility5 mi. (8 km)
Altimeter29.97 in.Hg (1015 mB)
Relative humidity30 %
Density altitude1,359 ft. (414 m)
Flight conditions Marginal Visual Meteorological Conditions
Raw dataGAMB 060900Z 04004KT 8000 NSC 26/07 Q1015
An error has occurred. This application may no longer respond until reloaded. Reload 🗙